createdAt,value
2023-02-19T00:00:59.753Z,1.38
2023-02-19T00:04:06.180Z,1.80
2023-02-19T00:07:10.768Z,1.43
2023-02-19T00:10:13.758Z,1.55
2023-02-19T00:13:16.857Z,2.15
2023-02-19T00:16:25.056Z,1.13
2023-02-19T00:19:33.031Z,4.03
2023-02-19T00:22:38.928Z,1.40
2023-02-19T00:25:45.383Z,1.23
2023-02-19T00:28:55.746Z,0.90
2023-02-19T00:31:58.951Z,0.98
2023-02-19T00:35:05.026Z,1.48
2023-02-19T00:38:08.231Z,1.57
2023-02-19T00:41:21.777Z,0.98
2023-02-19T00:44:25.186Z,0.90
2023-02-19T00:47:27.583Z,0.52
2023-02-19T00:50:30.925Z,1.08
2023-02-19T00:53:33.490Z,0.90
2023-02-19T00:56:36.298Z,0.73
2023-02-19T00:59:39.273Z,0.88
2023-02-19T01:02:42.670Z,0.60
2023-02-19T01:05:45.224Z,1.08
2023-02-19T01:08:47.834Z,1.47
2023-02-19T01:11:52.344Z,0.73
2023-02-19T01:14:55.537Z,1.95
2023-02-19T01:17:58.356Z,0.80
2023-02-19T01:21:14.880Z,0.70
2023-02-19T01:24:17.944Z,0.60
2023-02-19T01:27:20.612Z,0.90
2023-02-19T01:30:26.015Z,0.70
2023-02-19T01:33:34.050Z,0.60
2023-02-19T01:36:39.317Z,1.65
2023-02-19T01:39:42.705Z,0.60
2023-02-19T01:42:45.605Z,0.85
2023-02-19T01:45:57.193Z,0.90
2023-02-19T01:49:21.492Z,0.50
2023-02-19T01:52:32.229Z,0.88
2023-02-19T01:55:35.723Z,0.80
2023-02-19T01:58:39.421Z,1.58
2023-02-19T02:01:42.687Z,0.80
2023-02-19T02:08:34.636Z,1.02
2023-02-19T02:11:58.489Z,0.97
2023-02-19T02:15:01.890Z,0.90
2023-02-19T02:18:22.811Z,1.55
2023-02-19T02:22:04.597Z,1.13
2023-02-19T02:25:16.477Z,1.15
2023-02-19T02:28:49.802Z,0.53
2023-02-19T02:32:32.010Z,0.57
2023-02-19T02:35:43.181Z,0.73
2023-02-19T02:38:47.578Z,0.90
2023-02-19T02:42:15.145Z,1.00
2023-02-19T02:45:35.427Z,0.50
2023-02-19T02:48:46.862Z,0.57
2023-02-19T02:51:54.989Z,0.57
2023-02-19T02:55:03.938Z,0.80
2023-02-19T02:58:09.158Z,0.80
2023-02-19T03:01:38.848Z,0.60
2023-02-19T03:05:11.519Z,0.65
2023-02-19T03:08:48.527Z,0.70
2023-02-19T03:12:13.319Z,0.98
2023-02-19T03:15:41.240Z,0.95
2023-02-19T03:19:09.389Z,1.13
2023-02-19T03:22:22.176Z,1.95
2023-02-19T03:25:57.284Z,1.58
2023-02-19T03:29:23.669Z,1.33
2023-02-19T03:32:32.386Z,0.95
2023-02-19T03:35:47.755Z,0.87
2023-02-19T03:39:03.776Z,2.28
2023-02-19T03:42:26.543Z,1.10
2023-02-19T03:46:07.869Z,1.20
2023-02-19T03:49:30.910Z,1.20
2023-02-19T03:53:21.788Z,0.73
2023-02-19T03:57:00.986Z,0.93
2023-02-19T04:00:11.283Z,0.80
2023-02-19T04:03:39.377Z,1.23
2023-02-19T04:06:45.265Z,0.70
2023-02-19T04:09:58.450Z,0.73
2023-02-19T04:13:12.441Z,0.70
2023-02-19T04:16:28.495Z,0.60
2023-02-19T04:19:40.096Z,0.68
2023-02-19T04:22:46.633Z,0.65
2023-02-19T04:25:53.686Z,0.80
2023-02-19T04:28:57.143Z,0.88
2023-02-19T04:32:04.897Z,0.75
2023-02-19T04:35:16.236Z,0.73
2023-02-19T04:38:19.406Z,0.60
2023-02-19T04:41:25.659Z,0.73
2023-02-19T04:44:28.829Z,0.40
2023-02-19T04:47:34.784Z,0.80
2023-02-19T04:50:46.639Z,0.80
2023-02-19T04:53:53.406Z,0.52
2023-02-19T04:56:58.014Z,0.53
2023-02-19T05:00:00.927Z,0.45
2023-02-19T05:03:03.852Z,0.63
2023-02-19T05:06:09.282Z,1.02
2023-02-19T05:09:11.966Z,0.80
2023-02-19T05:12:14.620Z,0.77
2023-02-19T05:15:18.418Z,1.10
2023-02-19T05:18:20.752Z,0.82
2023-02-19T05:21:24.138Z,0.88
2023-02-19T05:24:28.151Z,1.17
2023-02-19T05:27:31.733Z,2.27
2023-02-19T05:30:36.063Z,1.73
2023-02-19T05:33:39.521Z,2.10
2023-02-19T05:36:42.173Z,1.10
2023-02-19T05:39:45.336Z,1.58
2023-02-19T05:42:48.612Z,1.53
2023-02-19T05:46:00.206Z,3.63
2023-02-19T05:49:03.591Z,1.33
2023-02-19T05:52:06.438Z,1.05
2023-02-19T05:55:12.999Z,2.00
2023-02-19T05:58:18.040Z,2.83
2023-02-19T06:01:28.596Z,4.57
2023-02-19T06:04:31.358Z,2.63
2023-02-19T06:07:35.447Z,1.95
2023-02-19T06:10:41.597Z,3.10
2023-02-19T06:13:45.562Z,1.87
2023-02-19T06:16:48.152Z,3.33
2023-02-19T06:19:50.897Z,2.30
2023-02-19T06:22:53.772Z,2.63
2023-02-19T06:26:09.676Z,2.88
2023-02-19T06:29:12.294Z,2.53
2023-02-19T06:32:17.086Z,3.17
2023-02-19T06:35:19.830Z,5.22
2023-02-19T06:38:22.780Z,3.65
2023-02-19T06:41:26.368Z,4.95
2023-02-19T06:44:29.221Z,5.10
2023-02-19T06:47:33.017Z,6.40
2023-02-19T06:50:35.488Z,5.53
2023-02-19T06:53:38.128Z,10.55
2023-02-19T06:56:42.149Z,7.53
2023-02-19T06:59:45.111Z,10.87
2023-02-19T07:02:47.459Z,11.35
2023-02-19T07:05:50.040Z,12.18
2023-02-19T07:08:53.312Z,13.02
2023-02-19T07:11:55.903Z,15.65
2023-02-19T07:14:59.972Z,16.30
2023-02-19T07:18:02.933Z,17.92
2023-02-19T07:21:12.542Z,16.45
2023-02-19T07:24:15.418Z,20.15
2023-02-19T07:27:18.030Z,17.48
2023-02-19T07:30:26.155Z,19.10
2023-02-19T07:33:32.021Z,21.00
2023-02-19T07:36:34.858Z,24.33
2023-02-19T07:39:37.666Z,22.25
2023-02-19T07:42:40.771Z,24.52
2023-02-19T07:45:45.928Z,25.87
2023-02-19T07:48:52.117Z,25.40
2023-02-19T07:51:56.724Z,27.83
2023-02-19T07:55:05.004Z,25.10
2023-02-19T07:58:07.988Z,28.90
2023-02-19T08:01:40.850Z,28.23
2023-02-19T08:04:43.702Z,26.27
2023-02-19T08:07:46.264Z,23.38
2023-02-19T08:11:08.851Z,25.13
2023-02-19T08:14:12.057Z,23.45
2023-02-19T08:17:15.304Z,22.30
2023-02-19T08:20:21.593Z,23.23
2023-02-19T08:23:28.079Z,24.65
2023-02-19T08:26:31.730Z,22.17
2023-02-19T08:29:35.422Z,24.80
2023-02-19T08:32:38.927Z,22.77
2023-02-19T08:35:47.213Z,20.42
2023-02-19T08:38:53.545Z,17.52
2023-02-19T08:42:02.894Z,15.43
2023-02-19T08:45:10.557Z,12.65
2023-02-19T08:48:14.138Z,9.33
2023-02-19T08:51:17.393Z,9.07
2023-02-19T08:54:24.180Z,7.53
2023-02-19T08:57:33.197Z,6.43
2023-02-19T09:00:42.202Z,6.35
2023-02-19T09:03:45.476Z,5.00
2023-02-19T09:06:51.312Z,6.35
2023-02-19T09:09:55.627Z,5.40
2023-02-19T09:13:01.249Z,7.03
2023-02-19T09:16:06.336Z,7.28
2023-02-19T09:19:09.736Z,11.23
2023-02-19T09:22:12.516Z,9.88
2023-02-19T09:25:15.908Z,12.43
2023-02-19T09:28:23.792Z,15.25
2023-02-19T09:31:27.374Z,15.35
2023-02-19T09:34:30.361Z,14.27
2023-02-19T09:37:35.773Z,14.07
2023-02-19T09:40:42.442Z,14.43
2023-02-19T09:43:45.640Z,15.73
2023-02-19T09:46:52.166Z,16.02
2023-02-19T09:50:04.243Z,15.47
2023-02-19T09:53:17.956Z,15.23
2023-02-19T09:56:20.830Z,18.35
2023-02-19T09:59:30.872Z,14.85
2023-02-19T10:02:33.888Z,17.52
2023-02-19T10:05:40.205Z,16.87
2023-02-19T10:08:49.252Z,13.52
2023-02-19T10:11:54.109Z,18.08
2023-02-19T10:15:04.777Z,22.25
2023-02-19T10:18:10.084Z,16.08
2023-02-19T10:21:25.812Z,16.87
2023-02-19T10:24:30.273Z,18.85
2023-02-19T10:27:33.076Z,18.48
2023-02-19T10:30:37.943Z,18.42
2023-02-19T10:33:52.586Z,16.52
2023-02-19T10:36:55.299Z,15.27
2023-02-19T10:39:57.577Z,15.20
2023-02-19T10:43:05.417Z,9.65
2023-02-19T10:46:15.393Z,8.60
2023-02-19T10:49:30.586Z,8.50
2023-02-19T10:52:36.491Z,8.17
2023-02-19T10:55:41.179Z,5.63
2023-02-19T10:58:45.260Z,8.80
2023-02-19T11:01:58.947Z,6.68
2023-02-19T11:05:15.473Z,5.53
2023-02-19T11:08:28.376Z,4.17
2023-02-19T11:11:40.448Z,4.45
2023-02-19T11:14:45.721Z,3.55
2023-02-19T11:18:02.287Z,2.65
2023-02-19T11:21:07.582Z,2.00
2023-02-19T11:24:31.124Z,2.70
2023-02-19T11:27:34.566Z,2.60
2023-02-19T11:30:39.699Z,2.28
2023-02-19T11:34:05.288Z,4.43
2023-02-19T11:37:28.480Z,2.85
2023-02-19T11:40:46.088Z,3.23
2023-02-19T11:44:14.817Z,3.38
2023-02-19T11:47:29.906Z,3.13
2023-02-19T11:50:51.867Z,3.05
2023-02-19T11:54:24.502Z,3.97
2023-02-19T11:57:41.099Z,3.97
2023-02-19T12:01:05.171Z,4.20
2023-02-19T12:04:32.149Z,2.50
2023-02-19T12:08:10.461Z,4.43
2023-02-19T12:11:54.021Z,3.53
2023-02-19T12:15:02.860Z,3.37
2023-02-19T12:18:38.344Z,4.05
2023-02-19T12:22:18.729Z,3.28
2023-02-19T12:25:33.438Z,4.05
2023-02-19T12:29:01.082Z,3.95
2023-02-19T12:32:39.419Z,3.17
2023-02-19T12:36:16.777Z,2.63
2023-02-19T12:39:38.069Z,2.33
2023-02-19T12:43:02.883Z,2.03
2023-02-19T12:46:21.784Z,1.80
2023-02-19T12:49:31.604Z,2.20
2023-02-19T12:52:46.879Z,1.95
2023-02-19T12:55:53.952Z,1.58
2023-02-19T12:59:11.408Z,1.40
2023-02-19T13:02:19.139Z,2.67
2023-02-19T13:05:38.259Z,2.00
2023-02-19T13:09:03.427Z,1.08
2023-02-19T13:12:26.070Z,1.10
2023-02-19T13:15:44.189Z,0.80
2023-02-19T13:18:58.130Z,1.40
2023-02-19T13:23:05.108Z,0.60
2023-02-19T13:26:19.615Z,2.35
2023-02-19T13:29:57.659Z,1.40
2023-02-19T13:33:12.151Z,1.25
2023-02-19T13:36:26.529Z,1.67
2023-02-19T13:39:31.124Z,1.07
2023-02-19T13:42:39.020Z,1.40
2023-02-19T13:45:44.856Z,1.25
2023-02-19T13:48:47.428Z,1.23
2023-02-19T13:51:57.015Z,3.08
2023-02-19T13:55:40.189Z,0.60
2023-02-19T13:58:56.914Z,0.68
2023-02-19T14:02:01.344Z,1.17
2023-02-19T14:05:10.747Z,1.08
2023-02-19T14:08:13.237Z,1.00
2023-02-19T14:11:48.521Z,0.83
2023-02-19T14:14:53.561Z,1.30
2023-02-19T14:17:57.185Z,1.85
2023-02-19T14:21:14.643Z,0.68
2023-02-19T14:24:18.287Z,1.00
2023-02-19T14:27:23.134Z,0.60
2023-02-19T14:30:28.596Z,1.50
2023-02-19T14:33:38.147Z,0.50
2023-02-19T14:36:50.555Z,0.88
2023-02-19T14:39:57.232Z,1.75
2023-02-19T14:43:01.250Z,0.70
2023-02-19T14:46:14.912Z,1.35
2023-02-19T14:49:33.934Z,0.85
2023-02-19T14:52:41.629Z,0.57
2023-02-19T14:55:48.816Z,1.05
2023-02-19T14:59:22.554Z,0.40
2023-02-19T15:02:27.782Z,0.35
2023-02-19T15:05:33.448Z,0.88
2023-02-19T15:08:48.605Z,0.52
2023-02-19T15:11:51.950Z,0.40
2023-02-19T15:14:59.995Z,1.30
2023-02-19T15:18:04.646Z,0.20
2023-02-19T15:21:08.751Z,0.40
2023-02-19T15:24:14.924Z,0.30
2023-02-19T15:27:24.641Z,0.88
2023-02-19T15:30:31.517Z,0.63
2023-02-19T15:33:35.393Z,0.43
2023-02-19T15:36:45.452Z,0.88
2023-02-19T15:39:56.167Z,0.93
2023-02-19T15:43:02.774Z,0.63
2023-02-19T15:46:15.989Z,0.47
2023-02-19T15:49:33.946Z,0.73
2023-02-19T15:52:59.414Z,0.30
2023-02-19T15:56:15.414Z,0.50
2023-02-19T15:59:29.893Z,0.25
2023-02-19T16:02:36.024Z,0.50
2023-02-19T16:05:40.577Z,0.55
2023-02-19T16:08:44.526Z,0.40
2023-02-19T16:11:54.033Z,0.40
2023-02-19T16:15:14.576Z,0.47
2023-02-19T16:18:17.856Z,0.63
2023-02-19T16:21:28.184Z,0.55
2023-02-19T16:24:37.405Z,0.65
2023-02-19T16:27:43.986Z,0.50
2023-02-19T16:30:47.363Z,0.70
2023-02-19T16:33:52.075Z,0.43
2023-02-19T16:36:55.031Z,0.30
2023-02-19T16:40:15.088Z,0.38
2023-02-19T16:43:37.944Z,1.30
2023-02-19T16:46:44.167Z,0.38
2023-02-19T16:49:46.862Z,0.40
2023-02-19T16:52:58.914Z,0.70
2023-02-19T16:56:01.682Z,0.40
2023-02-19T16:59:05.282Z,0.75
2023-02-19T17:02:15.963Z,0.45
2023-02-19T17:05:22.264Z,0.40
2023-02-19T17:08:38.250Z,0.40
2023-02-19T17:11:44.811Z,0.20
2023-02-19T17:14:47.995Z,0.17
2023-02-19T17:17:54.285Z,0.30
2023-02-19T17:21:21.341Z,0.60
2023-02-19T17:24:28.173Z,0.80
2023-02-19T17:27:33.025Z,0.95
2023-02-19T17:30:37.787Z,0.73
2023-02-19T17:33:53.671Z,0.68
2023-02-19T17:36:56.845Z,0.43
2023-02-19T17:39:59.708Z,0.30
2023-02-19T17:43:05.405Z,0.20
2023-02-19T17:46:09.988Z,0.30
2023-02-19T17:49:13.326Z,0.40
2023-02-19T17:52:21.790Z,0.47
2023-02-19T17:55:26.050Z,0.52
2023-02-19T17:58:31.103Z,0.28
2023-02-19T18:01:34.438Z,0.20
2023-02-19T18:04:40.145Z,2.03
2023-02-19T18:07:46.595Z,0.40
2023-02-19T18:10:51.537Z,0.75
2023-02-19T18:13:54.830Z,0.63
2023-02-19T18:16:57.426Z,0.98
2023-02-19T18:20:05.161Z,1.30
2023-02-19T18:23:09.735Z,1.17
2023-02-19T18:26:14.484Z,0.70
2023-02-19T18:29:18.686Z,0.50
2023-02-19T18:32:24.694Z,1.42
2023-02-19T18:35:28.074Z,1.27
2023-02-19T18:38:34.465Z,1.90
2023-02-19T18:41:37.839Z,0.57
2023-02-19T18:44:42.116Z,1.33
2023-02-19T18:47:53.603Z,0.77
2023-02-19T18:51:07.084Z,0.77
2023-02-19T18:54:13.266Z,1.20
2023-02-19T18:57:16.746Z,1.15
2023-02-19T19:00:25.872Z,0.60
2023-02-19T19:03:38.561Z,0.80
2023-02-19T19:06:41.500Z,0.98
2023-02-19T19:09:44.398Z,1.07
2023-02-19T19:12:47.342Z,0.63
2023-02-19T19:15:53.355Z,1.35
2023-02-19T19:18:57.632Z,0.90
2023-02-19T19:22:06.795Z,2.40
2023-02-19T19:25:15.700Z,0.80
2023-02-19T19:28:19.847Z,0.95
2023-02-19T19:31:23.163Z,0.85
2023-02-19T19:34:28.755Z,1.00
2023-02-19T19:37:32.562Z,2.63
2023-02-19T19:40:38.397Z,1.00
2023-02-19T19:43:40.949Z,1.02
2023-02-19T19:46:46.160Z,2.30
2023-02-19T19:49:48.523Z,1.40
2023-02-19T19:52:51.807Z,1.73
2023-02-19T19:55:55.003Z,2.00
2023-02-19T19:58:59.360Z,1.27
2023-02-19T20:02:05.448Z,2.38
2023-02-19T20:05:16.998Z,1.10
2023-02-19T20:08:19.763Z,3.22
2023-02-19T20:11:23.050Z,1.30
2023-02-19T20:14:26.737Z,1.48
2023-02-19T20:17:30.531Z,1.10
2023-02-19T20:20:33.571Z,1.67
2023-02-19T20:23:42.305Z,2.55
2023-02-19T20:26:45.650Z,1.60
2023-02-19T20:29:49.386Z,2.13
2023-02-19T20:32:52.035Z,2.40
2023-02-19T20:35:57.139Z,1.73
2023-02-19T20:39:00.052Z,3.15
2023-02-19T20:42:03.174Z,1.57
2023-02-19T20:45:06.446Z,2.45
2023-02-19T20:48:09.119Z,4.30
2023-02-19T20:51:12.036Z,2.22
2023-02-19T20:54:17.777Z,1.67
2023-02-19T20:57:20.213Z,2.10
2023-02-19T21:00:26.672Z,2.05
2023-02-19T21:03:30.579Z,1.50
2023-02-19T21:06:33.555Z,1.02
2023-02-19T21:09:36.844Z,1.80
2023-02-19T21:12:39.755Z,1.77
2023-02-19T21:15:42.521Z,2.13
2023-02-19T21:18:45.306Z,1.90
2023-02-19T21:21:48.003Z,1.98
2023-02-19T21:24:53.321Z,2.20
2023-02-19T21:27:56.257Z,1.73
2023-02-19T21:30:59.426Z,3.47
2023-02-19T21:34:04.984Z,1.65
2023-02-19T21:37:08.073Z,2.05
2023-02-19T21:40:12.790Z,1.58
2023-02-19T21:43:20.171Z,2.60
2023-02-19T21:46:26.886Z,1.42
2023-02-19T21:49:30.368Z,1.90
2023-02-19T21:52:33.453Z,1.73
2023-02-19T21:55:38.619Z,2.17
2023-02-19T21:58:46.800Z,1.70
2023-02-19T22:01:50.859Z,2.25
2023-02-19T22:04:56.474Z,1.30
2023-02-19T22:08:00.414Z,1.02
2023-02-19T22:11:07.069Z,1.88
2023-02-19T22:14:12.927Z,2.83
2023-02-19T22:17:16.124Z,1.90
2023-02-19T22:20:22.705Z,2.33
2023-02-19T22:23:26.070Z,1.48
2023-02-19T22:26:36.035Z,1.45
2023-02-19T22:30:06.992Z,1.93
2023-02-19T22:33:10.522Z,1.75
2023-02-19T22:36:19.874Z,0.82
2023-02-19T22:39:27.615Z,2.38
2023-02-19T22:42:30.801Z,2.92
2023-02-19T22:45:33.915Z,2.70
2023-02-19T22:48:36.607Z,2.25
2023-02-19T22:51:39.397Z,2.08
2023-02-19T22:54:41.982Z,1.17
2023-02-19T22:57:44.620Z,2.58
2023-02-19T23:00:49.765Z,1.83
2023-02-19T23:04:01.547Z,1.95
2023-02-19T23:07:06.519Z,2.30
2023-02-19T23:10:09.713Z,2.63
2023-02-19T23:13:12.390Z,4.35
2023-02-19T23:16:15.353Z,1.40
2023-02-19T23:19:18.243Z,1.25
2023-02-19T23:22:21.302Z,0.98
2023-02-19T23:25:27.979Z,2.50
2023-02-19T23:28:31.136Z,1.95
2023-02-19T23:31:34.096Z,0.70
2023-02-19T23:34:36.787Z,1.55
2023-02-19T23:37:40.037Z,1.60
2023-02-19T23:40:43.610Z,1.98
2023-02-19T23:43:46.070Z,3.80
2023-02-19T23:46:49.268Z,1.50
2023-02-19T23:49:52.356Z,1.73
2023-02-19T23:52:57.544Z,1.10
2023-02-19T23:56:00.226Z,2.13
2023-02-19T23:59:06.376Z,2.15
